createdAt,value
2018-08-11T00:01:07.725Z,17.80
2018-08-11T00:03:36.861Z,17.90
2018-08-11T00:06:06.036Z,17.90
2018-08-11T00:08:35.150Z,18.00
2018-08-11T00:11:05.368Z,18.00
2018-08-11T00:13:34.501Z,18.00
2018-08-11T00:16:03.668Z,18.00
2018-08-11T00:18:33.019Z,18.10
2018-08-11T00:21:06.533Z,18.10
2018-08-11T00:23:35.888Z,18.10
2018-08-11T00:26:07.439Z,18.10
2018-08-11T00:28:36.849Z,18.10
2018-08-11T00:31:10.268Z,18.10
2018-08-11T00:33:40.565Z,18.10
2018-08-11T00:36:10.005Z,18.10
2018-08-11T00:38:39.134Z,18.10
2018-08-11T00:41:09.693Z,18.10
2018-08-11T00:43:39.083Z,18.10
2018-08-11T00:46:08.394Z,18.00
2018-08-11T00:48:37.767Z,18.00
2018-08-11T00:51:07.179Z,18.00
2018-08-11T00:53:36.513Z,17.90
2018-08-11T00:56:05.952Z,17.90
2018-08-11T00:58:35.302Z,17.90
2018-08-11T01:01:04.685Z,17.80
2018-08-11T01:03:34.181Z,17.80
2018-08-11T01:06:04.222Z,17.90
2018-08-11T01:08:34.390Z,17.90
2018-08-11T01:11:39.329Z,18.00
2018-08-11T01:14:08.893Z,17.90
2018-08-11T01:16:45.538Z,17.90
2018-08-11T01:19:14.721Z,17.90
2018-08-11T01:21:55.282Z,17.90
2018-08-11T01:24:24.389Z,17.80
2018-08-11T01:26:55.469Z,17.80
2018-08-11T01:29:26.162Z,17.80
2018-08-11T01:31:56.341Z,17.80
2018-08-11T01:34:25.464Z,17.70
2018-08-11T01:36:54.636Z,17.70
2018-08-11T01:39:23.757Z,17.60
2018-08-11T01:41:52.972Z,17.50
2018-08-11T01:44:22.182Z,17.50
2018-08-11T01:46:51.212Z,17.50
2018-08-11T01:49:20.337Z,17.50
2018-08-11T01:51:52.704Z,17.40
2018-08-11T01:54:22.069Z,17.40
2018-08-11T01:56:51.197Z,17.30
2018-08-11T01:59:21.292Z,17.20
2018-08-11T02:02:13.233Z,17.20
2018-08-11T02:04:42.594Z,17.10
2018-08-11T02:07:11.942Z,17.00
2018-08-11T02:09:41.485Z,16.80
2018-08-11T02:12:32.401Z,16.20
2018-08-11T02:45:25.401Z,15.60
2018-08-11T02:47:54.750Z,15.50
2018-08-11T02:52:54.408Z,15.40
2018-08-11T02:55:23.780Z,15.40
2018-08-11T02:57:53.158Z,15.30
2018-08-11T03:00:23.802Z,15.10
2018-08-11T03:05:22.283Z,14.90
2018-08-11T03:07:51.698Z,14.80
2018-08-11T03:10:21.033Z,14.90
2018-08-11T03:12:50.453Z,14.90
2018-08-11T03:15:19.889Z,15.10
2018-08-11T03:17:49.534Z,14.90
2018-08-11T03:20:19.698Z,14.80
2018-08-11T03:22:49.164Z,14.70
2018-08-11T03:25:18.677Z,14.70
2018-08-11T03:27:48.142Z,14.80
2018-08-11T03:30:17.764Z,14.50
2018-08-11T03:32:47.273Z,14.40
2018-08-11T03:35:16.565Z,14.50
2018-08-11T03:37:46.351Z,14.60
2018-08-11T03:40:15.754Z,14.70
2018-08-11T03:42:45.845Z,14.60
2018-08-11T03:45:15.173Z,14.60
2018-08-11T03:47:52.689Z,14.50
2018-08-11T03:50:21.784Z,14.40
2018-08-11T03:52:50.911Z,14.30
2018-08-11T03:55:20.001Z,14.40
2018-08-11T03:57:49.065Z,14.50
2018-08-11T04:00:18.169Z,14.60
2018-08-11T04:02:47.332Z,14.20
2018-08-11T04:05:16.465Z,14.10
2018-08-11T04:07:45.600Z,14.00
2018-08-11T04:10:14.684Z,14.00
2018-08-11T04:12:43.877Z,14.00
2018-08-11T04:15:13.362Z,14.10
2018-08-11T04:17:42.745Z,14.10
2018-08-11T04:20:14.201Z,14.20
2018-08-11T04:22:43.573Z,14.10
2018-08-11T04:25:13.009Z,14.10
2018-08-11T04:27:43.320Z,14.10
2018-08-11T04:30:12.419Z,14.00
2018-08-11T04:32:41.500Z,13.80
2018-08-11T04:35:10.596Z,13.90
2018-08-11T04:37:39.727Z,14.00
2018-08-11T04:40:09.506Z,13.90
2018-08-11T04:42:46.675Z,13.90
2018-08-11T04:45:16.121Z,13.90
2018-08-11T04:48:21.638Z,14.00
2018-08-11T04:50:50.862Z,13.90
2018-08-11T04:53:19.988Z,13.80
2018-08-11T04:55:49.124Z,13.80
2018-08-11T04:58:18.460Z,13.80
2018-08-11T05:00:51.765Z,13.90
2018-08-11T05:03:21.153Z,13.90
2018-08-11T05:05:50.445Z,14.00
2018-08-11T05:08:19.842Z,14.20
2018-08-11T05:10:51.385Z,14.00
2018-08-11T05:13:20.812Z,14.10
2018-08-11T05:15:50.902Z,14.10
2018-08-11T05:18:20.201Z,14.00
2018-08-11T05:20:49.939Z,14.10
2018-08-11T05:23:19.182Z,14.10
2018-08-11T05:25:48.569Z,14.10
2018-08-11T05:28:18.042Z,14.30
2018-08-11T05:30:52.113Z,14.40
2018-08-11T05:33:21.538Z,14.50
2018-08-11T05:35:50.912Z,14.70
2018-08-11T05:38:21.340Z,14.80
2018-08-11T05:40:52.995Z,14.80
2018-08-11T05:43:22.645Z,14.90
2018-08-11T05:48:21.947Z,15.20
2018-08-11T05:50:51.408Z,15.30
2018-08-11T05:53:20.737Z,15.30
2018-08-11T05:55:50.142Z,15.50
2018-08-11T05:58:19.556Z,15.70
2018-08-11T06:00:50.955Z,15.80
2018-08-11T06:03:20.430Z,15.80
2018-08-11T06:05:49.728Z,16.00
2018-08-11T06:08:19.198Z,16.20
2018-08-11T06:11:05.587Z,16.20
2018-08-11T06:13:34.983Z,16.30
2018-08-11T06:16:04.389Z,16.40
2018-08-11T06:18:33.825Z,16.60
2018-08-11T06:21:08.930Z,16.60
2018-08-11T06:23:38.291Z,16.60
2018-08-11T06:26:08.296Z,16.70
2018-08-11T06:28:37.737Z,16.70
2018-08-11T06:31:07.190Z,16.90
2018-08-11T06:33:37.285Z,17.10
2018-08-11T06:36:06.713Z,17.20
2018-08-11T06:38:36.101Z,17.40
2018-08-11T06:41:06.621Z,17.80
2018-08-11T06:43:36.013Z,18.20
2018-08-11T06:46:06.342Z,18.60
2018-08-11T06:48:35.737Z,18.80
2018-08-11T06:51:09.470Z,19.20
2018-08-11T06:53:38.858Z,19.30
2018-08-11T06:56:08.589Z,19.50
2018-08-11T06:58:37.982Z,19.70
2018-08-11T07:01:07.373Z,19.60
2018-08-11T07:03:36.785Z,19.60
2018-08-11T07:06:06.206Z,19.30
2018-08-11T07:08:35.657Z,19.20
2018-08-11T07:11:07.161Z,19.30
2018-08-11T07:13:36.583Z,19.50
2018-08-11T07:16:05.965Z,19.30
2018-08-11T07:18:35.401Z,19.60
2018-08-11T07:21:23.089Z,20.20
2018-08-11T07:23:52.385Z,20.80
2018-08-11T07:26:21.836Z,20.70
2018-08-11T07:28:51.342Z,20.90
2018-08-11T07:31:29.934Z,21.00
2018-08-11T07:33:59.335Z,20.90
2018-08-11T07:36:28.905Z,20.90
2018-08-11T07:38:59.058Z,21.00
2018-08-11T07:41:32.749Z,21.20
2018-08-11T07:44:02.161Z,21.30
2018-08-11T07:46:31.681Z,21.00
2018-08-11T07:49:01.349Z,21.40
2018-08-11T07:51:34.433Z,21.40
2018-08-11T07:54:03.753Z,21.60
2018-08-11T07:56:33.145Z,21.70
2018-08-11T07:59:02.557Z,21.60
2018-08-11T08:01:32.078Z,21.70
2018-08-11T08:04:01.573Z,21.70
2018-08-11T08:06:31.034Z,21.90
2018-08-11T08:09:00.579Z,21.80
2018-08-11T08:11:29.989Z,22.10
2018-08-11T08:13:59.483Z,22.30
2018-08-11T08:16:28.884Z,22.40
2018-08-11T08:18:58.256Z,22.40
2018-08-11T08:21:28.696Z,22.10
2018-08-11T08:23:58.117Z,22.40
2018-08-11T08:26:27.755Z,22.30
2018-08-11T08:28:57.061Z,22.10
2018-08-11T08:31:26.462Z,22.10
2018-08-11T08:33:55.950Z,21.90
2018-08-11T08:36:25.514Z,21.60
2018-08-11T08:38:54.830Z,21.70
2018-08-11T08:41:42.106Z,21.60
2018-08-11T08:44:11.421Z,21.70
2018-08-11T08:46:40.959Z,21.90
2018-08-11T08:49:10.327Z,22.40
2018-08-11T08:51:39.851Z,22.30
2018-08-11T08:54:09.317Z,22.10
2018-08-11T08:56:38.859Z,21.70
2018-08-11T08:59:09.410Z,21.70
2018-08-11T09:01:39.929Z,22.00
2018-08-11T09:04:09.334Z,22.40
2018-08-11T09:06:38.768Z,22.20
2018-08-11T09:09:10.961Z,22.50
2018-08-11T09:12:19.940Z,22.70
2018-08-11T09:14:49.309Z,23.10
2018-08-11T09:17:18.844Z,23.00
2018-08-11T09:19:48.234Z,22.50
2018-08-11T09:22:33.202Z,22.90
2018-08-11T09:25:02.696Z,23.40
2018-08-11T09:27:32.129Z,23.00
2018-08-11T09:30:01.598Z,22.80
2018-08-11T09:32:36.541Z,23.00
2018-08-11T09:35:07.791Z,22.90
2018-08-11T09:37:37.365Z,23.20
2018-08-11T09:40:06.886Z,23.60
2018-08-11T09:42:36.450Z,23.10
2018-08-11T09:45:06.250Z,22.60
2018-08-11T09:47:35.732Z,23.00
2018-08-11T09:50:05.150Z,23.30
2018-08-11T09:52:42.560Z,23.50
2018-08-11T09:55:11.885Z,23.00
2018-08-11T09:57:41.359Z,22.90
2018-08-11T10:00:11.156Z,22.90
2018-08-11T10:02:40.585Z,23.00
2018-08-11T10:05:10.075Z,22.50
2018-08-11T10:07:39.472Z,22.80
2018-08-11T10:10:09.007Z,22.60
2018-08-11T10:12:44.854Z,23.30
2018-08-11T10:15:14.406Z,23.90
2018-08-11T10:17:43.868Z,24.30
2018-08-11T10:20:13.261Z,23.90
2018-08-11T10:22:42.720Z,23.70
2018-08-11T10:25:12.157Z,23.40
2018-08-11T10:27:41.523Z,23.20
2018-08-11T10:30:10.882Z,23.20
2018-08-11T10:32:40.326Z,23.60
2018-08-11T10:35:09.871Z,23.90
2018-08-11T10:37:39.405Z,24.70
2018-08-11T10:40:08.857Z,24.80
2018-08-11T10:42:38.287Z,24.60
2018-08-11T10:45:07.777Z,25.10
2018-08-11T10:47:37.177Z,24.70
2018-08-11T10:52:44.277Z,25.70
2018-08-11T10:55:13.798Z,24.90
2018-08-11T10:57:43.092Z,25.20
2018-08-11T11:00:12.489Z,23.80
2018-08-11T11:02:41.965Z,23.90
2018-08-11T11:05:11.659Z,24.10
2018-08-11T11:07:41.099Z,24.00
2018-08-11T11:10:10.515Z,24.90
2018-08-11T11:12:39.881Z,25.10
2018-08-11T11:15:09.628Z,24.40
2018-08-11T11:17:39.497Z,24.40
2018-08-11T11:20:11.481Z,23.70
2018-08-11T11:22:41.409Z,23.70
2018-08-11T11:25:10.954Z,24.90
2018-08-11T11:27:40.797Z,24.40
2018-08-11T11:30:10.225Z,24.20
2018-08-11T11:32:39.687Z,24.00
2018-08-11T11:35:09.125Z,23.30
2018-08-11T11:37:38.497Z,23.00
2018-08-11T11:40:07.958Z,24.00
2018-08-11T11:42:37.551Z,24.90
2018-08-11T11:45:07.182Z,24.90
2018-08-11T11:47:36.624Z,25.20
2018-08-11T11:50:06.478Z,25.10
2018-08-11T11:52:39.541Z,25.20
2018-08-11T11:55:08.979Z,25.40
2018-08-11T11:57:38.313Z,26.00
2018-08-11T12:00:07.834Z,26.40
2018-08-11T12:02:37.222Z,26.30
2018-08-11T12:05:06.690Z,26.30
2018-08-11T12:07:38.171Z,26.90
2018-08-11T12:10:07.522Z,26.20
2018-08-11T12:12:42.711Z,26.60
2018-08-11T12:15:12.182Z,27.20
2018-08-11T12:17:41.533Z,28.60
2018-08-11T12:20:10.891Z,27.70
2018-08-11T12:22:40.401Z,27.80
2018-08-11T12:25:10.021Z,28.30
2018-08-11T12:27:39.429Z,27.10
2018-08-11T12:30:10.281Z,27.80
2018-08-11T12:32:39.669Z,27.90
2018-08-11T12:35:09.095Z,28.90
2018-08-11T12:37:38.505Z,26.80
2018-08-11T12:40:07.976Z,25.80
2018-08-11T12:42:42.029Z,25.90
2018-08-11T12:45:11.399Z,25.60
2018-08-11T12:47:40.830Z,26.70
2018-08-11T12:50:10.458Z,25.90
2018-08-11T12:52:39.879Z,25.10
2018-08-11T12:55:09.338Z,25.10
2018-08-11T12:57:38.885Z,24.80
2018-08-11T13:00:09.296Z,25.00
2018-08-11T13:02:52.382Z,26.70
2018-08-11T13:05:21.888Z,27.40
2018-08-11T13:07:51.381Z,27.30
2018-08-11T13:10:20.979Z,27.80
2018-08-11T13:12:50.421Z,27.90
2018-08-11T13:15:19.882Z,28.50
2018-08-11T13:17:49.257Z,27.80
2018-08-11T13:20:18.686Z,26.30
2018-08-11T13:22:48.070Z,26.80
2018-08-11T13:25:17.612Z,27.20
2018-08-11T13:27:47.054Z,29.10
2018-08-11T13:30:16.408Z,29.90
2018-08-11T13:32:46.005Z,29.60
2018-08-11T13:35:15.501Z,30.00
2018-08-11T13:37:44.868Z,28.20
2018-08-11T13:40:14.228Z,27.40
2018-08-11T13:42:43.570Z,28.70
2018-08-11T13:50:11.114Z,32.00
2018-08-11T13:52:40.534Z,31.60
2018-08-11T13:55:10.097Z,31.40
2018-08-11T14:00:09.535Z,29.70
2018-08-11T14:02:38.950Z,29.10
2018-08-11T14:05:08.485Z,29.20
2018-08-11T14:07:37.959Z,30.50
2018-08-11T14:10:09.651Z,30.40
2018-08-11T14:12:39.046Z,29.00
2018-08-11T14:15:09.078Z,28.40
2018-08-11T14:17:38.497Z,28.10
2018-08-11T14:20:09.676Z,28.30
2018-08-11T14:22:39.553Z,28.10
2018-08-11T14:25:09.245Z,27.00
2018-08-11T14:27:38.919Z,27.50
2018-08-11T14:30:10.805Z,28.70
2018-08-11T14:32:41.187Z,28.60
2018-08-11T14:35:10.625Z,28.70
2018-08-11T14:37:40.058Z,29.60
2018-08-11T14:40:10.690Z,30.50
2018-08-11T14:42:40.126Z,29.40
2018-08-11T14:45:10.274Z,29.70
2018-08-11T14:47:39.767Z,30.60
2018-08-11T14:50:09.211Z,29.80
2018-08-11T14:52:40.714Z,29.20
2018-08-11T14:55:09.832Z,28.90
2018-08-11T14:57:39.017Z,29.00
2018-08-11T15:00:12.465Z,29.00
2018-08-11T15:02:42.249Z,29.60
2018-08-11T15:05:11.688Z,29.50
2018-08-11T15:07:41.070Z,30.10
2018-08-11T15:10:10.818Z,29.80
2018-08-11T15:12:41.263Z,29.10
2018-08-11T15:15:11.197Z,27.90
2018-08-11T15:17:41.866Z,27.10
2018-08-11T15:20:11.564Z,27.70
2018-08-11T15:22:41.112Z,28.40
2018-08-11T15:25:10.890Z,28.50
2018-08-11T15:27:40.667Z,28.20
2018-08-11T15:30:12.256Z,28.00
2018-08-11T15:32:41.633Z,28.00
2018-08-11T15:35:10.977Z,28.60
2018-08-11T15:37:40.389Z,28.20
2018-08-11T15:40:09.825Z,28.60
2018-08-11T15:42:39.373Z,28.20
2018-08-11T15:45:09.666Z,29.10
2018-08-11T15:47:39.062Z,29.10
2018-08-11T15:50:08.501Z,28.70
2018-08-11T15:52:38.050Z,28.30
2018-08-11T15:55:07.782Z,27.80
2018-08-11T15:57:37.197Z,27.10
2018-08-11T16:00:07.292Z,27.40
2018-08-11T16:02:36.969Z,28.40
2018-08-11T16:05:06.514Z,28.90
2018-08-11T16:07:36.001Z,28.30
2018-08-11T16:10:05.907Z,28.70
2018-08-11T16:12:38.900Z,28.80
2018-08-11T16:15:08.321Z,29.10
2018-08-11T16:17:37.432Z,29.20
2018-08-11T16:20:06.541Z,28.40
2018-08-11T16:22:35.697Z,28.40
2018-08-11T16:25:04.913Z,28.70
2018-08-11T16:27:34.074Z,28.80
2018-08-11T16:30:03.212Z,28.60
2018-08-11T16:32:33.464Z,27.90
2018-08-11T16:35:02.589Z,27.20
2018-08-11T16:37:31.958Z,26.10
2018-08-11T16:40:01.347Z,26.20
2018-08-11T16:42:49.687Z,25.80
2018-08-11T16:45:19.170Z,25.30
2018-08-11T16:47:48.622Z,25.60
2018-08-11T16:50:18.009Z,26.20
2018-08-11T16:52:47.353Z,26.40
2018-08-11T16:55:16.816Z,25.70
2018-08-11T16:57:46.277Z,25.40
2018-08-11T17:00:15.627Z,25.00
2018-08-11T17:02:45.069Z,24.80
2018-08-11T17:05:14.505Z,25.00
2018-08-11T17:07:44.141Z,25.30
2018-08-11T17:10:13.590Z,25.20
2018-08-11T17:12:42.954Z,25.30
2018-08-11T17:15:12.345Z,24.90
2018-08-11T17:17:41.740Z,24.70
2018-08-11T17:20:11.078Z,24.20
2018-08-11T17:22:40.525Z,24.10
2018-08-11T17:25:09.833Z,23.80
2018-08-11T17:27:39.275Z,23.80
2018-08-11T17:30:08.786Z,23.90
2018-08-11T17:32:39.228Z,23.80
2018-08-11T17:35:08.644Z,23.80
2018-08-11T17:37:37.986Z,24.00
2018-08-11T17:40:08.185Z,23.90
2018-08-11T17:42:38.932Z,23.90
2018-08-11T17:45:08.330Z,24.00
2018-08-11T17:47:37.662Z,23.70
2018-08-11T17:50:07.413Z,23.60
2018-08-11T17:52:36.909Z,23.60
2018-08-11T17:55:06.321Z,23.60
2018-08-11T17:57:35.776Z,23.50
2018-08-11T18:00:05.709Z,23.30
2018-08-11T18:02:42.741Z,23.20
2018-08-11T18:05:12.168Z,23.20
2018-08-11T18:07:41.510Z,23.10
2018-08-11T18:10:10.977Z,23.20
2018-08-11T18:12:40.324Z,23.10
2018-08-11T18:15:09.726Z,23.00
2018-08-11T18:17:39.149Z,22.90
2018-08-11T18:20:08.590Z,22.80
2018-08-11T18:22:38.001Z,22.70
2018-08-11T18:25:07.595Z,22.60
2018-08-11T18:27:36.957Z,22.60
2018-08-11T18:30:07.272Z,22.60
2018-08-11T18:32:38.745Z,22.40
2018-08-11T18:35:08.677Z,22.40
2018-08-11T18:37:38.129Z,22.30
2018-08-11T18:40:07.554Z,22.10
2018-08-11T18:42:38.109Z,22.00
2018-08-11T18:45:07.445Z,22.00
2018-08-11T18:47:36.861Z,21.90
2018-08-11T18:50:06.249Z,21.80
2018-08-11T18:52:45.400Z,21.80
2018-08-11T18:55:14.757Z,21.70
2018-08-11T18:57:44.227Z,21.60
2018-08-11T19:00:17.401Z,21.40
2018-08-11T19:02:47.021Z,21.10
2018-08-11T19:05:16.374Z,21.00
2018-08-11T19:07:45.806Z,20.70
2018-08-11T19:10:15.321Z,20.60
2018-08-11T19:12:44.692Z,20.70
2018-08-11T19:15:14.953Z,20.60
2018-08-11T19:17:44.372Z,20.30
2018-08-11T19:20:14.606Z,20.30
2018-08-11T19:22:44.458Z,20.30
2018-08-11T19:25:13.802Z,20.20
2018-08-11T19:27:43.183Z,20.10
2018-08-11T19:30:12.533Z,20.10
2018-08-11T19:32:42.032Z,20.00
2018-08-11T19:35:11.427Z,19.90
2018-08-11T19:37:40.704Z,19.80
2018-08-11T19:42:39.485Z,19.30
2018-08-11T19:45:11.129Z,19.10
2018-08-11T19:47:40.945Z,19.00
2018-08-11T19:50:11.939Z,19.10
2018-08-11T19:52:42.333Z,19.10
2018-08-11T19:55:11.734Z,19.00
2018-08-11T19:57:41.074Z,18.90
2018-08-11T20:00:13.194Z,18.80
2018-08-11T20:02:42.889Z,18.70
2018-08-11T20:05:12.453Z,18.60
2018-08-11T20:07:41.929Z,18.40
2018-08-11T20:10:11.301Z,18.50
2018-08-11T20:12:40.764Z,18.30
2018-08-11T20:15:10.765Z,18.20
2018-08-11T20:17:40.185Z,18.20
2018-08-11T20:20:10.622Z,18.20
2018-08-11T20:22:39.988Z,18.10
2018-08-11T20:25:09.450Z,18.00
2018-08-11T20:27:38.941Z,18.00
2018-08-11T20:30:10.277Z,17.80
2018-08-11T20:32:39.603Z,17.70
2018-08-11T20:35:08.933Z,17.80
2018-08-11T20:37:38.554Z,17.80
2018-08-11T20:40:07.875Z,17.90
2018-08-11T20:42:53.913Z,17.80
2018-08-11T20:45:23.302Z,17.70
2018-08-11T20:47:52.770Z,17.60
2018-08-11T20:50:22.217Z,17.50
2018-08-11T20:52:51.553Z,17.40
2018-08-11T20:55:20.961Z,17.40
2018-08-11T20:57:50.447Z,17.30
2018-08-11T21:00:21.924Z,17.30
2018-08-11T21:02:51.195Z,17.20
2018-08-11T21:05:20.617Z,17.00
2018-08-11T21:07:50.078Z,17.00
2018-08-11T21:10:19.514Z,17.00
2018-08-11T21:12:48.945Z,16.90
2018-08-11T21:15:18.610Z,16.90
2018-08-11T21:17:47.937Z,16.80
2018-08-11T21:22:46.393Z,16.40
2018-08-11T21:25:15.780Z,16.20
2018-08-11T21:27:45.199Z,16.00
2018-08-11T21:30:15.313Z,16.00
2018-08-11T21:32:44.778Z,16.00
2018-08-11T21:35:14.253Z,16.00
2018-08-11T21:37:43.637Z,16.00
2018-08-11T21:42:44.019Z,15.70
2018-08-11T21:45:13.481Z,15.50
2018-08-11T21:47:43.221Z,15.50
2018-08-11T21:50:12.514Z,15.50
2018-08-11T21:52:41.924Z,15.50
2018-08-11T21:55:11.097Z,15.50
2018-08-11T21:57:40.189Z,15.50
2018-08-11T22:00:31.416Z,15.50
2018-08-11T22:03:00.828Z,15.50
2018-08-11T22:05:30.093Z,15.30
2018-08-11T22:10:46.545Z,15.20
2018-08-11T22:13:15.701Z,15.20
2018-08-11T22:15:44.843Z,15.10
2018-08-11T22:18:13.964Z,15.00
2018-08-11T22:20:45.157Z,14.90
2018-08-11T22:23:14.438Z,14.90
2018-08-11T22:25:43.865Z,14.90
2018-08-11T22:28:13.267Z,14.80
2018-08-11T22:30:46.734Z,14.80
2018-08-11T22:33:16.094Z,14.60
2018-08-11T22:35:45.579Z,14.60
2018-08-11T22:38:14.877Z,14.60
2018-08-11T22:40:47.353Z,14.20
2018-08-11T22:43:16.753Z,14.10
2018-08-11T22:45:46.098Z,14.20
2018-08-11T22:48:15.453Z,14.20
2018-08-11T22:50:54.877Z,14.20
2018-08-11T22:53:24.272Z,14.10
2018-08-11T22:55:53.670Z,14.10
2018-08-11T22:58:23.090Z,14.00
2018-08-11T23:00:54.553Z,13.90
2018-08-11T23:05:53.072Z,13.80
2018-08-11T23:08:22.453Z,13.70
2018-08-11T23:10:52.861Z,13.50
2018-08-11T23:13:22.273Z,13.60
2018-08-11T23:15:51.649Z,13.60
2018-08-11T23:18:21.004Z,13.70
2018-08-11T23:20:50.470Z,13.60
2018-08-11T23:23:19.885Z,13.50
2018-08-11T23:25:49.257Z,13.50
2018-08-11T23:28:18.620Z,13.40
2018-08-11T23:30:49.013Z,13.30
2018-08-11T23:33:18.925Z,13.30
2018-08-11T23:35:48.317Z,13.30
2018-08-11T23:38:17.710Z,12.90
2018-08-11T23:40:51.749Z,13.00
2018-08-11T23:43:21.220Z,13.00
2018-08-11T23:45:50.320Z,13.10
2018-08-11T23:48:19.414Z,13.10
2018-08-11T23:50:48.616Z,13.00
2018-08-11T23:53:17.769Z,12.90
2018-08-11T23:55:46.865Z,12.90
2018-08-11T23:58:16.025Z,12.70
